createdAt,value
2018-04-25T00:01:04.179Z,93712.65
2018-04-25T00:03:34.834Z,93706.00
2018-04-25T00:06:05.536Z,93710.41
2018-04-25T00:08:33.975Z,93708.84
2018-04-25T00:11:02.791Z,93710.30
2018-04-25T00:13:33.375Z,93709.91
2018-04-25T00:16:01.870Z,93712.95
2018-04-25T00:18:30.475Z,93715.13
2018-04-25T00:20:58.913Z,93711.91
2018-04-25T00:23:27.339Z,93713.45
2018-04-25T00:25:55.787Z,93717.25
2018-04-25T00:28:24.246Z,93717.30
2018-04-25T00:30:52.743Z,93712.03
2018-04-25T00:33:21.223Z,93718.55
2018-04-25T00:35:52.200Z,93715.52
2018-04-25T00:38:22.891Z,93715.13
2018-04-25T00:40:53.892Z,93717.13
2018-04-25T00:43:22.351Z,93719.48
2018-04-25T00:45:50.870Z,93717.05
2018-04-25T00:48:19.356Z,93717.13
2018-04-25T00:50:47.804Z,93718.05
2018-04-25T00:53:16.280Z,93711.25
2018-04-25T00:55:49.183Z,93707.84
2018-04-25T00:58:18.055Z,93704.52
2018-04-25T01:00:46.531Z,93703.55
2018-04-25T01:03:14.989Z,93703.76
2018-04-25T01:05:43.663Z,93704.60
2018-04-25T01:08:16.439Z,93698.86
2018-04-25T01:10:45.255Z,93705.17
2018-04-25T01:13:13.702Z,93702.72
2018-04-25T01:15:42.157Z,93697.69
2018-04-25T01:18:12.903Z,93691.41
2018-04-25T01:20:41.339Z,93686.36
2018-04-25T01:23:09.868Z,93690.86
2018-04-25T01:25:40.551Z,93680.59
2018-04-25T01:28:21.663Z,93682.36
2018-04-25T01:30:50.119Z,93685.63
2018-04-25T01:33:20.843Z,93677.70
2018-04-25T01:35:49.310Z,93675.41
2018-04-25T01:38:17.773Z,93677.13
2018-04-25T01:40:46.231Z,93662.09
2018-04-25T01:43:14.710Z,93667.16
2018-04-25T01:45:59.055Z,93670.20
2018-04-25T01:48:31.580Z,93664.46
2018-04-25T01:50:59.923Z,93658.34
2018-04-25T01:53:34.694Z,93657.44
2018-04-25T01:56:17.572Z,93660.27
2018-04-25T01:59:02.748Z,93655.46
2018-04-25T02:01:43.606Z,93654.67
2018-04-25T02:04:11.943Z,93647.05
2018-04-25T02:06:40.379Z,93653.91
2018-04-25T02:09:08.774Z,93654.76
2018-04-25T02:11:37.224Z,93657.10
2018-04-25T02:14:05.659Z,93658.63
2018-04-25T02:16:36.323Z,93653.25
2018-04-25T02:19:09.232Z,93658.52
2018-04-25T02:21:39.927Z,93658.52
2018-04-25T02:24:10.522Z,93661.63
2018-04-25T02:26:38.921Z,93661.09
2018-04-25T02:29:07.655Z,93664.60
2018-04-25T02:31:36.051Z,93660.34
2018-04-25T02:34:04.437Z,93655.62
2018-04-25T02:36:32.895Z,93658.77
2018-04-25T02:39:05.799Z,93664.28
2018-04-25T02:41:34.251Z,93662.94
2018-04-25T02:44:02.979Z,93660.06
2018-04-25T02:46:31.392Z,93651.76
2018-04-25T02:49:04.280Z,93657.27
2018-04-25T02:51:32.810Z,93658.12
2018-04-25T02:54:01.240Z,93649.84
2018-04-25T02:56:32.179Z,93654.44
2018-04-25T02:59:00.605Z,93657.74
2018-04-25T03:01:28.995Z,93659.66
2018-04-25T03:03:57.425Z,93662.34
2018-04-25T03:06:25.830Z,93655.45
2018-04-25T03:08:54.255Z,93647.81
2018-04-25T03:11:22.718Z,93645.32
2018-04-25T03:13:51.419Z,93653.90
2018-04-25T03:16:19.859Z,93646.84
2018-04-25T03:18:48.299Z,93650.56
2018-04-25T03:21:16.718Z,93641.38
2018-04-25T03:23:45.120Z,93637.98
2018-04-25T03:26:13.560Z,93640.49
2018-04-25T03:28:44.231Z,93633.32
2018-04-25T03:31:14.889Z,93633.10
2018-04-25T03:33:45.583Z,93636.28
2018-04-25T03:36:14.370Z,93628.54
2018-04-25T03:38:47.195Z,93627.33
2018-04-25T03:41:15.947Z,93622.27
2018-04-25T03:43:44.379Z,93622.23
2018-04-25T03:46:12.783Z,93610.52
2018-04-25T03:48:45.644Z,93617.60
2018-04-25T03:51:16.327Z,93617.16
2018-04-25T03:53:46.994Z,93622.42
2018-04-25T03:56:19.844Z,93616.05
2018-04-25T03:58:50.879Z,93625.62
2018-04-25T04:01:21.601Z,93616.92
2018-04-25T04:03:50.382Z,93620.66
2018-04-25T04:06:18.837Z,93621.17
2018-04-25T04:08:47.246Z,93622.39
2018-04-25T04:11:15.786Z,93621.17
2018-04-25T04:13:46.371Z,93617.67
2018-04-25T04:16:14.776Z,93617.07
2018-04-25T04:18:43.205Z,93622.84
2018-04-25T04:21:11.977Z,93624.92
2018-04-25T04:23:42.632Z,93627.31
2018-04-25T04:26:13.322Z,93615.66
2018-04-25T04:28:44.063Z,93610.39
2018-04-25T04:31:12.515Z,93611.16
2018-04-25T04:33:40.951Z,93610.14
2018-04-25T04:36:10.300Z,93612.47
2018-04-25T04:38:41.064Z,93605.47
2018-04-25T04:41:09.523Z,93605.66
2018-04-25T04:43:37.991Z,93604.55
2018-04-25T04:46:09.220Z,93603.44
2018-04-25T04:48:41.802Z,93606.61
2018-04-25T04:51:12.404Z,93600.14
2018-04-25T04:53:40.796Z,93595.22
2018-04-25T04:56:09.219Z,93599.29
2018-04-25T04:58:44.227Z,93602.58
2018-04-25T05:01:12.867Z,93597.45
2018-04-25T05:03:41.260Z,93602.41
2018-04-25T05:06:09.694Z,93601.81
2018-04-25T05:08:38.191Z,93594.88
2018-04-25T05:11:06.602Z,93595.27
2018-04-25T05:13:35.056Z,93598.33
2018-04-25T05:16:03.535Z,93594.52
2018-04-25T05:18:31.984Z,93603.08
2018-04-25T05:21:02.288Z,93603.41
2018-04-25T05:23:30.730Z,93610.74
2018-04-25T05:25:59.196Z,93608.32
2018-04-25T05:28:28.460Z,93604.95
2018-04-25T05:30:59.117Z,93597.53
2018-04-25T05:33:27.519Z,93604.36
2018-04-25T05:35:55.948Z,93595.72
2018-04-25T05:38:26.464Z,93603.34
2018-04-25T05:40:55.163Z,93600.22
2018-04-25T05:43:23.539Z,93592.24
2018-04-25T05:45:52.050Z,93599.00
2018-04-25T05:48:20.468Z,93611.73
2018-04-25T05:50:48.879Z,93607.20
2018-04-25T05:53:19.479Z,93599.12
2018-04-25T05:55:47.879Z,93600.91
2018-04-25T05:58:18.364Z,93590.25
2018-04-25T06:00:46.888Z,93596.87
2018-04-25T06:03:17.363Z,93601.06
2018-04-25T06:05:45.751Z,93596.51
2018-04-25T06:08:14.552Z,93606.04
2018-04-25T06:10:42.918Z,93594.64
2018-04-25T06:13:11.318Z,93594.07
2018-04-25T06:15:39.816Z,93601.95
2018-04-25T06:18:08.214Z,93601.28
2018-04-25T06:20:37.225Z,93599.22
2018-04-25T06:23:05.650Z,93604.79
2018-04-25T06:25:35.172Z,93609.28
2018-04-25T06:28:03.588Z,93616.70
2018-04-25T06:30:32.032Z,93621.52
2018-04-25T06:33:00.450Z,93623.87
2018-04-25T06:35:29.066Z,93625.30
2018-04-25T06:37:59.552Z,93623.28
2018-04-25T06:40:27.950Z,93625.42
2018-04-25T06:42:56.412Z,93620.81
2018-04-25T06:45:24.840Z,93624.59
2018-04-25T06:47:53.564Z,93624.81
2018-04-25T06:50:22.011Z,93619.80
2018-04-25T06:52:50.408Z,93625.53
2018-04-25T06:55:18.857Z,93621.59
2018-04-25T06:57:47.267Z,93622.95
2018-04-25T07:00:15.910Z,93625.77
2018-04-25T07:02:44.518Z,93622.37
2018-04-25T07:05:13.016Z,93627.08
2018-04-25T07:07:41.358Z,93628.66
2018-04-25T07:10:09.788Z,93627.98
2018-04-25T07:12:38.227Z,93624.28
2018-04-25T07:15:07.611Z,93629.19
2018-04-25T07:17:36.127Z,93621.11
2018-04-25T07:20:05.486Z,93634.69
2018-04-25T07:22:34.278Z,93632.44
2018-04-25T07:25:02.730Z,93629.80
2018-04-25T07:27:31.169Z,93635.81
2018-04-25T07:29:59.930Z,93631.59
2018-04-25T07:32:28.319Z,93636.84
2018-04-25T07:34:56.688Z,93637.05
2018-04-25T07:37:25.119Z,93634.16
2018-04-25T07:39:54.283Z,93638.30
2018-04-25T07:42:22.695Z,93639.63
2018-04-25T07:44:51.139Z,93635.39
2018-04-25T07:47:19.694Z,93637.36
2018-04-25T07:49:48.363Z,93635.06
2018-04-25T07:52:16.874Z,93633.98
2018-04-25T07:54:45.299Z,93638.96
2018-04-25T07:57:13.707Z,93644.30
2018-04-25T07:59:42.135Z,93645.33
2018-04-25T08:02:10.791Z,93646.75
2018-04-25T08:04:39.251Z,93643.39
2018-04-25T08:07:07.676Z,93641.91
2018-04-25T08:09:36.083Z,93648.25
2018-04-25T08:12:10.709Z,93644.09
2018-04-25T08:14:45.259Z,93639.19
2018-04-25T08:17:20.226Z,93652.06
2018-04-25T08:19:54.571Z,93650.64
2018-04-25T08:22:23.001Z,93640.78
2018-04-25T08:24:51.400Z,93636.05
2018-04-25T08:27:19.868Z,93642.31
2018-04-25T08:29:48.360Z,93648.34
2018-04-25T08:32:16.733Z,93650.95
2018-04-25T08:34:45.150Z,93641.34
2018-04-25T08:37:13.560Z,93642.92
2018-04-25T08:39:42.006Z,93641.20
2018-04-25T08:42:11.037Z,93648.16
2018-04-25T08:44:39.882Z,93634.94
2018-04-25T08:47:08.291Z,93644.95
2018-04-25T08:49:36.675Z,93629.41
2018-04-25T08:52:05.121Z,93632.21
2018-04-25T08:54:34.691Z,93640.94
2018-04-25T08:57:03.118Z,93639.72
2018-04-25T08:59:32.508Z,93637.30
2018-04-25T09:02:00.999Z,93621.66
2018-04-25T09:04:29.367Z,93632.41
2018-04-25T09:06:57.883Z,93619.72
2018-04-25T09:09:26.326Z,93637.44
2018-04-25T09:11:55.124Z,93624.03
2018-04-25T09:14:23.520Z,93633.73
2018-04-25T09:16:52.960Z,93629.11
2018-04-25T09:19:21.379Z,93625.26
2018-04-25T09:21:49.754Z,93623.92
2018-04-25T09:24:18.250Z,93620.60
2018-04-25T09:26:47.822Z,93623.31
2018-04-25T09:29:16.507Z,93630.75
2018-04-25T09:31:44.918Z,93629.75
2018-04-25T09:34:13.364Z,93632.11
2018-04-25T09:36:41.838Z,93634.23
2018-04-25T09:39:10.154Z,93626.55
2018-04-25T09:41:38.586Z,93632.61
2018-04-25T09:44:06.998Z,93633.75
2018-04-25T09:46:35.427Z,93634.52
2018-04-25T09:49:04.511Z,93638.31
2018-04-25T09:51:32.974Z,93637.58
2018-04-25T09:54:01.362Z,93643.33
2018-04-25T09:56:30.636Z,93631.33
2018-04-25T09:58:59.071Z,93628.71
2018-04-25T10:01:30.398Z,93647.70
2018-04-25T10:03:58.872Z,93643.72
2018-04-25T10:06:28.070Z,93637.05
2018-04-25T10:08:56.487Z,93640.78
2018-04-25T10:11:24.893Z,93639.92
2018-04-25T10:13:53.319Z,93643.69
2018-04-25T10:16:21.709Z,93646.53
2018-04-25T10:18:50.160Z,93650.53
2018-04-25T10:21:18.633Z,93654.47
2018-04-25T10:23:46.999Z,93654.22
2018-04-25T10:26:15.583Z,93654.58
2018-04-25T10:28:44.047Z,93648.58
2018-04-25T10:31:12.390Z,93647.00
2018-04-25T10:33:40.836Z,93645.59
2018-04-25T10:36:09.183Z,93644.09
2018-04-25T10:38:37.661Z,93658.89
2018-04-25T10:41:06.047Z,93650.52
2018-04-25T10:43:34.510Z,93633.50
2018-04-25T10:46:02.926Z,93642.69
2018-04-25T10:48:31.746Z,93636.28
2018-04-25T10:51:00.211Z,93645.28
2018-04-25T10:53:28.675Z,93629.85
2018-04-25T10:55:57.187Z,93651.49
2018-04-25T10:58:25.607Z,93643.92
2018-04-25T11:00:53.981Z,93643.56
2018-04-25T11:03:22.839Z,93652.16
2018-04-25T11:05:51.230Z,93628.23
2018-04-25T11:08:19.773Z,93637.05
2018-04-25T11:10:49.403Z,93632.88
2018-04-25T11:13:17.801Z,93639.94
2018-04-25T11:15:46.595Z,93639.34
2018-04-25T11:18:15.031Z,93638.30
2018-04-25T11:20:43.429Z,93638.81
2018-04-25T11:23:11.906Z,93643.87
2018-04-25T11:25:40.354Z,93635.00
2018-04-25T11:28:08.863Z,93641.31
2018-04-25T11:30:37.348Z,93626.12
2018-04-25T11:33:06.127Z,93641.58
2018-04-25T11:35:34.535Z,93661.06
2018-04-25T11:38:02.932Z,93636.00
2018-04-25T11:40:31.371Z,93626.75
2018-04-25T11:42:59.772Z,93639.44
2018-04-25T11:45:28.199Z,93630.81
2018-04-25T11:47:56.720Z,93623.00
2018-04-25T11:50:25.091Z,93639.88
2018-04-25T11:52:53.544Z,93642.34
2018-04-25T11:55:21.954Z,93644.64
2018-04-25T11:57:50.450Z,93640.67
2018-04-25T12:00:18.917Z,93633.64
2018-04-25T12:02:47.341Z,93637.39
2018-04-25T12:05:15.779Z,93629.70
2018-04-25T12:07:44.160Z,93628.02
2018-04-25T12:10:13.148Z,93635.27
2018-04-25T12:12:41.544Z,93624.67
2018-04-25T12:15:09.915Z,93635.72
2018-04-25T12:17:38.369Z,93642.14
2018-04-25T12:20:06.738Z,93633.48
2018-04-25T12:22:35.183Z,93642.61
2018-04-25T12:25:03.563Z,93643.92
2018-04-25T12:27:32.023Z,93632.70
2018-04-25T12:30:00.505Z,93627.45
2018-04-25T12:32:28.912Z,93643.75
2018-04-25T12:34:57.284Z,93632.27
2018-04-25T12:37:25.703Z,93635.11
2018-04-25T12:39:54.155Z,93633.11
2018-04-25T12:42:22.706Z,93624.05
2018-04-25T12:44:51.108Z,93621.27
2018-04-25T12:47:19.511Z,93621.11
2018-04-25T12:49:47.916Z,93625.77
2018-04-25T12:52:16.323Z,93615.20
2018-04-25T12:54:44.805Z,93602.62
2018-04-25T12:57:13.229Z,93617.52
2018-04-25T12:59:41.957Z,93618.02
2018-04-25T13:02:10.343Z,93618.70
2018-04-25T13:04:38.763Z,93625.12
2018-04-25T13:07:07.143Z,93615.13
2018-04-25T13:09:35.520Z,93608.92
2018-04-25T13:12:04.067Z,93619.36
2018-04-25T13:14:32.411Z,93607.09
2018-04-25T13:17:00.863Z,93605.18
2018-04-25T13:19:29.275Z,93611.11
2018-04-25T13:21:57.679Z,93599.01
2018-04-25T13:24:26.120Z,93609.19
2018-04-25T13:26:54.616Z,93619.70
2018-04-25T13:29:23.080Z,93610.75
2018-04-25T13:31:51.571Z,93617.00
2018-04-25T13:34:19.940Z,93609.92
2018-04-25T13:36:49.344Z,93609.00
2018-04-25T13:39:17.882Z,93611.84
2018-04-25T13:41:46.331Z,93600.91
2018-04-25T13:44:14.827Z,93589.22
2018-04-25T13:46:43.737Z,93598.95
2018-04-25T13:49:12.220Z,93588.33
2018-04-25T13:51:40.639Z,93598.08
2018-04-25T13:54:09.328Z,93590.47
2018-04-25T13:56:37.752Z,93602.80
2018-04-25T13:59:06.170Z,93603.33
2018-04-25T14:01:34.600Z,93589.16
2018-04-25T14:04:03.000Z,93586.44
2018-04-25T14:06:31.455Z,93586.19
2018-04-25T14:08:59.868Z,93564.91
2018-04-25T14:11:28.383Z,93585.84
2018-04-25T14:13:56.820Z,93562.98
2018-04-25T14:16:25.266Z,93564.58
2018-04-25T14:18:53.723Z,93558.86
2018-04-25T14:21:22.135Z,93561.37
2018-04-25T14:23:51.522Z,93563.66
2018-04-25T14:26:19.919Z,93561.81
2018-04-25T14:28:48.362Z,93571.95
2018-04-25T14:31:16.919Z,93572.61
2018-04-25T14:33:45.371Z,93575.00
2018-04-25T14:36:13.765Z,93564.28
2018-04-25T14:38:42.884Z,93574.47
2018-04-25T14:41:11.310Z,93564.98
2018-04-25T14:43:41.003Z,93566.98
2018-04-25T14:46:09.659Z,93571.00
2018-04-25T14:48:38.064Z,93576.74
2018-04-25T14:51:06.496Z,93579.02
2018-04-25T14:53:34.920Z,93575.55
2018-04-25T14:56:03.357Z,93569.01
2018-04-25T14:58:31.823Z,93572.75
2018-04-25T15:01:00.324Z,93573.53
2018-04-25T15:03:28.759Z,93583.30
2018-04-25T15:05:57.248Z,93572.19
2018-04-25T15:08:25.690Z,93589.04
2018-04-25T15:10:54.201Z,93585.30
2018-04-25T15:13:23.208Z,93589.44
2018-04-25T15:15:51.688Z,93582.63
2018-04-25T15:18:20.968Z,93583.16
2018-04-25T15:20:49.426Z,93587.44
2018-04-25T15:23:18.732Z,93580.59
2018-04-25T15:25:47.526Z,93584.22
2018-04-25T15:28:15.980Z,93577.67
2018-04-25T15:30:44.404Z,93573.68
2018-04-25T15:33:13.855Z,93572.60
2018-04-25T15:35:42.266Z,93578.22
2018-04-25T15:38:10.731Z,93578.34
2018-04-25T15:40:41.191Z,93575.16
2018-04-25T15:43:09.564Z,93572.47
2018-04-25T15:45:38.874Z,93575.69
2018-04-25T15:48:07.347Z,93575.28
2018-04-25T15:50:35.776Z,93577.66
2018-04-25T15:53:05.115Z,93571.81
2018-04-25T15:55:34.619Z,93572.14
2018-04-25T15:58:03.471Z,93573.49
2018-04-25T16:00:32.988Z,93581.34
2018-04-25T16:03:01.389Z,93568.00
2018-04-25T16:05:29.861Z,93561.05
2018-04-25T16:07:58.315Z,93559.47
2018-04-25T16:10:26.831Z,93561.30
2018-04-25T16:12:56.275Z,93566.19
2018-04-25T16:15:24.734Z,93571.78
2018-04-25T16:17:53.154Z,93577.97
2018-04-25T16:20:21.563Z,93576.59
2018-04-25T16:22:50.350Z,93577.39
2018-04-25T16:25:18.754Z,93576.03
2018-04-25T16:27:47.167Z,93575.00
2018-04-25T16:30:15.650Z,93576.58
2018-04-25T16:32:44.088Z,93570.61
2018-04-25T16:35:12.571Z,93568.82
2018-04-25T16:37:41.017Z,93565.75
2018-04-25T16:40:10.019Z,93571.97
2018-04-25T16:42:38.774Z,93567.61
2018-04-25T16:45:07.219Z,93572.22
2018-04-25T16:47:35.652Z,93570.58
2018-04-25T16:50:04.146Z,93573.67
2018-04-25T16:52:33.406Z,93571.44
2018-04-25T16:55:02.367Z,93566.95
2018-04-25T16:57:30.763Z,93564.04
2018-04-25T16:59:59.440Z,93561.88
2018-04-25T17:02:28.017Z,93562.78
2018-04-25T17:04:56.470Z,93556.00
2018-04-25T17:07:24.903Z,93554.67
2018-04-25T17:09:53.350Z,93550.42
2018-04-25T17:12:21.783Z,93545.84
2018-04-25T17:14:50.391Z,93542.56
2018-04-25T17:17:18.820Z,93550.73
2018-04-25T17:19:48.290Z,93561.98
2018-04-25T17:22:17.456Z,93552.34
2018-04-25T17:24:45.843Z,93557.47
2018-04-25T17:27:15.348Z,93563.62
2018-04-25T17:29:43.753Z,93558.99
2018-04-25T17:32:12.154Z,93566.25
2018-04-25T17:34:41.631Z,93562.41
2018-04-25T17:37:10.904Z,93559.23
2018-04-25T17:39:39.318Z,93563.14
2018-04-25T17:42:08.035Z,93570.81
2018-04-25T17:44:36.463Z,93564.52
2018-04-25T17:47:04.904Z,93566.56
2018-04-25T17:49:34.538Z,93568.98
2018-04-25T17:52:03.052Z,93564.66
2018-04-25T17:54:31.519Z,93561.84
2018-04-25T17:57:00.031Z,93571.77
2018-04-25T17:59:28.466Z,93567.41
2018-04-25T18:01:57.938Z,93582.81
2018-04-25T18:04:26.355Z,93579.45
2018-04-25T18:06:55.161Z,93584.00
2018-04-25T18:09:24.599Z,93581.59
2018-04-25T18:11:53.024Z,93580.20
2018-04-25T18:14:21.515Z,93579.34
2018-04-25T18:16:50.011Z,93587.12
2018-04-25T18:19:19.297Z,93584.00
2018-04-25T18:21:47.780Z,93585.95
2018-04-25T18:24:17.094Z,93585.38
2018-04-25T18:26:45.503Z,93590.90
2018-04-25T18:29:13.969Z,93595.19
2018-04-25T18:31:42.386Z,93603.43
2018-04-25T18:34:10.858Z,93602.20
2018-04-25T18:36:39.278Z,93604.55
2018-04-25T18:39:07.752Z,93601.54
2018-04-25T18:41:36.216Z,93607.25
2018-04-25T18:44:04.647Z,93622.27
2018-04-25T18:46:33.114Z,93624.21
2018-04-25T18:49:01.565Z,93625.67
2018-04-25T18:51:29.935Z,93619.97
2018-04-25T18:53:58.407Z,93614.53
2018-04-25T18:56:26.854Z,93610.59
2018-04-25T18:58:55.320Z,93613.95
2018-04-25T19:01:23.853Z,93621.30
2018-04-25T19:03:52.288Z,93629.42
2018-04-25T19:06:20.742Z,93634.36
2018-04-25T19:08:49.163Z,93638.60
2018-04-25T19:11:17.679Z,93635.27
2018-04-25T19:13:46.115Z,93644.59
2018-04-25T19:16:14.574Z,93645.94
2018-04-25T19:18:43.044Z,93644.80
2018-04-25T19:21:11.483Z,93644.52
2018-04-25T19:23:39.898Z,93645.07
2018-04-25T19:26:08.324Z,93647.80
2018-04-25T19:28:36.798Z,93649.63
2018-04-25T19:31:05.263Z,93653.34
2018-04-25T19:33:33.672Z,93659.29
2018-04-25T19:36:02.204Z,93661.54
2018-04-25T19:38:30.595Z,93670.80
2018-04-25T19:40:59.041Z,93681.53
2018-04-25T19:43:27.541Z,93682.95
2018-04-25T19:45:56.983Z,93684.34
2018-04-25T19:48:26.656Z,93681.87
2018-04-25T19:50:57.327Z,93679.52
2018-04-25T19:53:25.932Z,93692.95
2018-04-25T19:55:54.397Z,93692.20
2018-04-25T19:58:23.003Z,93698.12
2018-04-25T20:00:53.782Z,93697.64
2018-04-25T20:03:22.520Z,93703.66
2018-04-25T20:05:50.924Z,93704.62
2018-04-25T20:08:19.415Z,93708.23
2018-04-25T20:10:47.915Z,93698.70
2018-04-25T20:13:16.336Z,93699.73
2018-04-25T20:15:44.810Z,93694.91
2018-04-25T20:18:15.512Z,93697.34
2018-04-25T20:20:46.255Z,93698.21
2018-04-25T20:23:14.707Z,93702.71
2018-04-25T20:25:43.143Z,93705.86
2018-04-25T20:28:11.554Z,93711.66
2018-04-25T20:30:42.279Z,93710.95
2018-04-25T20:33:10.809Z,93713.47
2018-04-25T20:35:39.285Z,93717.05
2018-04-25T20:38:07.760Z,93720.58
2018-04-25T20:40:36.191Z,93732.63
2018-04-25T20:43:04.711Z,93736.75
2018-04-25T20:45:33.534Z,93739.53
2018-04-25T20:48:01.974Z,93744.36
2018-04-25T20:50:30.385Z,93739.80
2018-04-25T20:53:01.103Z,93739.63
2018-04-25T20:55:31.763Z,93737.91
2018-04-25T20:58:02.517Z,93744.19
2018-04-25T21:00:30.988Z,93747.09
2018-04-25T21:02:59.357Z,93748.59
2018-04-25T21:05:30.477Z,93755.39
2018-04-25T21:08:01.104Z,93759.95
2018-04-25T21:10:30.875Z,93755.61
2018-04-25T21:12:59.319Z,93761.25
2018-04-25T21:15:32.096Z,93769.95
2018-04-25T21:18:00.510Z,93768.86
2018-04-25T21:20:28.927Z,93778.36
2018-04-25T21:22:57.400Z,93776.17
2018-04-25T21:25:25.841Z,93784.50
2018-04-25T21:27:57.377Z,93785.77
2018-04-25T21:30:25.775Z,93794.81
2018-04-25T21:32:54.232Z,93790.48
2018-04-25T21:35:22.755Z,93802.72
2018-04-25T21:37:51.220Z,93796.52
2018-04-25T21:40:19.619Z,93793.28
2018-04-25T21:42:48.028Z,93791.05
2018-04-25T21:45:16.456Z,93788.06
2018-04-25T21:47:44.882Z,93789.06
2018-04-25T21:50:13.314Z,93793.73
2018-04-25T21:52:41.766Z,93792.86
2018-04-25T21:55:12.630Z,93791.22
2018-04-25T21:57:43.303Z,93787.72
2018-04-25T22:00:11.687Z,93790.98
2018-04-25T22:02:44.603Z,93790.56
2018-04-25T22:05:13.051Z,93797.77
2018-04-25T22:07:48.136Z,93790.15
2018-04-25T22:10:16.640Z,93796.55
2018-04-25T22:12:45.136Z,93786.52
2018-04-25T22:15:13.546Z,93785.74
2018-04-25T22:17:41.987Z,93789.13
2018-04-25T22:20:10.400Z,93788.63
2018-04-25T22:22:38.997Z,93802.75
2018-04-25T22:25:07.442Z,93802.36
2018-04-25T22:27:35.875Z,93804.92
2018-04-25T22:30:04.261Z,93810.09
2018-04-25T22:32:32.718Z,93807.49
2018-04-25T22:35:05.593Z,93813.50
2018-04-25T22:37:34.252Z,93811.37
2018-04-25T22:40:02.687Z,93815.38
2018-04-25T22:42:31.115Z,93810.66
2018-04-25T22:44:59.788Z,93811.70
2018-04-25T22:47:28.155Z,93808.48
2018-04-25T22:49:56.559Z,93804.34
2018-04-25T22:52:25.264Z,93815.50
2018-04-25T22:54:53.667Z,93816.98
2018-04-25T22:57:22.079Z,93811.75
2018-04-25T22:59:50.552Z,93812.72
2018-04-25T23:02:19.175Z,93816.14
2018-04-25T23:04:47.616Z,93812.28
2018-04-25T23:07:16.042Z,93811.23
2018-04-25T23:09:44.470Z,93805.53
2018-04-25T23:12:12.911Z,93805.39
2018-04-25T23:14:41.419Z,93806.14
2018-04-25T23:17:09.858Z,93807.83
2018-04-25T23:19:38.610Z,93802.02
2018-04-25T23:22:09.227Z,93816.44
2018-04-25T23:24:37.627Z,93804.58
2018-04-25T23:27:06.053Z,93809.02
2018-04-25T23:29:34.499Z,93813.71
2018-04-25T23:32:02.951Z,93818.03
2018-04-25T23:34:31.529Z,93823.00
2018-04-25T23:36:59.904Z,93813.20
2018-04-25T23:39:28.281Z,93816.72
2018-04-25T23:41:57.104Z,93810.53
2018-04-25T23:44:25.539Z,93811.98
2018-04-25T23:46:53.963Z,93814.08
2018-04-25T23:49:22.386Z,93816.01
2018-04-25T23:51:50.803Z,93820.13
2018-04-25T23:54:19.232Z,93815.03
2018-04-25T23:56:47.665Z,93818.95
2018-04-25T23:59:16.074Z,93817.09
